createdAt,value
2019-02-06T00:01:04.924Z,13.73
2019-02-06T00:03:39.586Z,12.10
2019-02-06T00:06:13.601Z,11.87
2019-02-06T00:08:46.920Z,11.77
2019-02-06T00:11:22.342Z,12.10
2019-02-06T00:13:58.265Z,11.67
2019-02-06T00:16:31.887Z,10.20
2019-02-06T00:19:04.921Z,11.23
2019-02-06T00:21:39.791Z,10.90
2019-02-06T00:24:13.573Z,10.77
2019-02-06T00:26:47.545Z,10.97
2019-02-06T00:29:21.854Z,9.20
2019-02-06T00:31:56.160Z,9.83
2019-02-06T00:34:30.082Z,9.77
2019-02-06T00:37:06.657Z,9.83
2019-02-06T00:39:40.408Z,9.70
2019-02-06T00:42:14.074Z,9.30
2019-02-06T00:44:47.357Z,9.30
2019-02-06T00:47:20.629Z,10.00
2019-02-06T00:49:54.480Z,9.70
2019-02-06T00:52:28.562Z,9.20
2019-02-06T00:55:02.892Z,8.77
2019-02-06T00:57:36.925Z,9.37
2019-02-06T01:00:15.203Z,8.83
2019-02-06T01:02:48.964Z,9.13
2019-02-06T01:05:23.506Z,9.23
2019-02-06T01:07:57.212Z,9.13
2019-02-06T01:10:30.922Z,9.43
2019-02-06T01:13:05.142Z,9.20
2019-02-06T01:15:39.992Z,8.83
2019-02-06T01:18:15.344Z,9.57
2019-02-06T01:20:49.165Z,9.00
2019-02-06T01:23:22.808Z,9.33
2019-02-06T01:25:57.962Z,9.77
2019-02-06T01:28:31.739Z,9.47
2019-02-06T01:31:10.194Z,8.90
2019-02-06T01:33:43.818Z,9.57
2019-02-06T01:36:17.725Z,8.67
2019-02-06T01:38:52.047Z,9.47
2019-02-06T01:41:26.357Z,9.27
2019-02-06T01:44:00.474Z,8.90
2019-02-06T01:46:34.130Z,9.37
2019-02-06T01:49:08.169Z,10.03
2019-02-06T01:51:42.662Z,8.90
2019-02-06T01:54:16.197Z,9.27
2019-02-06T01:56:48.985Z,9.63
2019-02-06T01:59:23.364Z,9.47
2019-02-06T02:01:58.088Z,9.10
2019-02-06T02:04:32.179Z,9.97
2019-02-06T02:07:05.951Z,10.07
2019-02-06T02:09:39.908Z,9.30
2019-02-06T02:12:16.283Z,8.97
2019-02-06T02:14:50.136Z,9.17
2019-02-06T02:17:24.170Z,9.30
2019-02-06T02:19:58.708Z,9.13
2019-02-06T02:22:34.253Z,8.93
2019-02-06T02:25:08.402Z,8.30
2019-02-06T02:27:42.364Z,9.67
2019-02-06T02:30:21.406Z,9.10
2019-02-06T02:32:55.097Z,8.83
2019-02-06T02:35:29.265Z,9.53
2019-02-06T02:38:03.493Z,9.57
2019-02-06T02:40:37.408Z,8.83
2019-02-06T02:43:12.221Z,9.07
2019-02-06T02:45:45.056Z,9.37
2019-02-06T02:48:21.609Z,9.20
2019-02-06T02:50:56.055Z,9.53
2019-02-06T02:53:31.295Z,8.60
2019-02-06T02:56:06.027Z,9.27
2019-02-06T02:58:40.774Z,8.40
2019-02-06T03:01:29.542Z,9.43
2019-02-06T03:04:13.243Z,8.80
2019-02-06T03:06:46.534Z,9.10
2019-02-06T03:09:20.305Z,8.73
2019-02-06T03:11:53.843Z,8.50
2019-02-06T03:14:26.812Z,8.77
2019-02-06T03:17:03.254Z,8.70
2019-02-06T03:19:35.645Z,8.07
2019-02-06T03:22:10.821Z,8.93
2019-02-06T03:24:45.659Z,7.83
2019-02-06T03:27:19.820Z,8.10
2019-02-06T03:29:55.426Z,8.40
2019-02-06T03:32:29.564Z,7.90
2019-02-06T03:35:03.829Z,8.90
2019-02-06T03:37:38.351Z,8.53
2019-02-06T03:40:13.358Z,9.03
2019-02-06T03:42:46.780Z,8.20
2019-02-06T03:45:20.456Z,9.43
2019-02-06T03:47:53.694Z,9.20
2019-02-06T03:50:27.720Z,8.50
2019-02-06T03:53:01.267Z,8.77
2019-02-06T03:55:35.194Z,8.63
2019-02-06T03:58:09.419Z,9.00
2019-02-06T04:00:44.783Z,8.23
2019-02-06T04:03:18.639Z,8.50
2019-02-06T04:05:53.293Z,8.87
2019-02-06T04:08:27.600Z,8.47
2019-02-06T04:11:01.552Z,8.07
2019-02-06T04:13:35.435Z,8.10
2019-02-06T04:16:10.179Z,8.70
2019-02-06T04:18:45.344Z,8.20
2019-02-06T04:21:20.043Z,8.27
2019-02-06T04:23:54.481Z,8.40
2019-02-06T04:26:28.634Z,8.87
2019-02-06T04:29:02.379Z,8.60
2019-02-06T04:31:36.907Z,8.63
2019-02-06T04:34:11.395Z,8.20
2019-02-06T04:36:45.159Z,8.43
2019-02-06T04:39:19.756Z,7.97
2019-02-06T04:41:53.582Z,9.53
2019-02-06T04:44:28.794Z,9.03
2019-02-06T04:47:06.819Z,8.73
2019-02-06T04:49:40.724Z,8.27
2019-02-06T04:52:14.763Z,8.50
2019-02-06T04:54:49.133Z,8.67
2019-02-06T04:57:22.931Z,8.83
2019-02-06T04:59:57.090Z,8.73
2019-02-06T05:02:31.972Z,8.77
2019-02-06T05:05:06.860Z,8.30
2019-02-06T05:07:41.029Z,7.83
2019-02-06T05:10:17.547Z,8.40
2019-02-06T05:12:51.968Z,8.77
2019-02-06T05:15:26.239Z,8.27
2019-02-06T05:18:00.661Z,8.80
2019-02-06T05:20:38.177Z,8.97
2019-02-06T05:23:14.041Z,8.50
2019-02-06T05:25:48.190Z,8.83
2019-02-06T05:28:23.812Z,8.47
2019-02-06T05:30:58.457Z,8.77
2019-02-06T05:33:32.990Z,9.60
2019-02-06T05:36:07.035Z,9.77
2019-02-06T05:38:41.787Z,8.50
2019-02-06T05:41:15.838Z,9.07
2019-02-06T05:43:49.021Z,9.03
2019-02-06T05:46:26.846Z,10.10
2019-02-06T05:49:00.962Z,9.57
2019-02-06T05:51:35.571Z,8.83
2019-02-06T05:54:10.297Z,8.50
2019-02-06T05:56:44.746Z,8.80
2019-02-06T05:59:19.125Z,8.97
2019-02-06T06:01:53.745Z,9.80
2019-02-06T06:04:29.038Z,9.90
2019-02-06T06:07:04.061Z,9.20
2019-02-06T06:09:38.119Z,9.77
2019-02-06T06:12:12.555Z,8.90
2019-02-06T06:14:47.011Z,9.10
2019-02-06T06:17:22.252Z,9.53
2019-02-06T06:19:56.871Z,9.63
2019-02-06T06:22:32.182Z,9.23
2019-02-06T06:25:07.814Z,9.87
2019-02-06T06:27:42.067Z,10.17
2019-02-06T06:30:17.634Z,9.20
2019-02-06T06:32:52.382Z,9.13
2019-02-06T06:35:27.479Z,9.50
2019-02-06T06:38:02.779Z,9.50
2019-02-06T06:40:36.868Z,10.33
2019-02-06T06:43:11.162Z,9.37
2019-02-06T06:45:45.465Z,9.60
2019-02-06T06:48:20.534Z,9.43
2019-02-06T06:50:55.898Z,8.90
2019-02-06T06:53:31.006Z,9.20
2019-02-06T06:56:06.053Z,8.63
2019-02-06T06:58:40.470Z,8.83
2019-02-06T07:01:15.375Z,9.23
2019-02-06T07:03:49.936Z,9.27
2019-02-06T07:06:24.672Z,9.83
2019-02-06T07:08:58.187Z,8.83
2019-02-06T07:11:29.485Z,8.87
2019-02-06T07:14:00.913Z,9.47
2019-02-06T07:16:32.740Z,9.60
2019-02-06T07:19:05.829Z,10.03
2019-02-06T07:21:38.278Z,8.60
2019-02-06T07:24:11.233Z,9.23
2019-02-06T07:26:43.616Z,9.07
2019-02-06T07:29:16.748Z,9.00
2019-02-06T07:31:48.730Z,9.13
2019-02-06T07:34:20.299Z,8.73
2019-02-06T07:36:52.178Z,8.80
2019-02-06T07:39:24.143Z,8.57
2019-02-06T07:41:57.156Z,9.00
2019-02-06T07:44:31.720Z,9.20
2019-02-06T07:47:03.112Z,8.60
2019-02-06T07:49:34.587Z,8.80
2019-02-06T07:52:06.043Z,9.47
2019-02-06T07:54:37.463Z,9.17
2019-02-06T07:57:09.015Z,8.87
2019-02-06T07:59:40.334Z,8.70
2019-02-06T08:02:12.136Z,7.90
2019-02-06T08:04:43.474Z,8.60
2019-02-06T08:07:15.064Z,7.70
2019-02-06T08:09:46.202Z,8.17
2019-02-06T08:12:17.715Z,8.80
2019-02-06T08:14:49.069Z,8.73
2019-02-06T08:17:20.731Z,8.50
2019-02-06T08:19:53.341Z,8.77
2019-02-06T08:22:24.929Z,9.13
2019-02-06T08:24:56.721Z,9.17
2019-02-06T08:27:28.019Z,8.63
2019-02-06T08:30:00.976Z,9.30
2019-02-06T08:32:38.050Z,8.80
2019-02-06T08:35:10.190Z,8.70
2019-02-06T08:37:41.998Z,8.60
2019-02-06T08:40:14.076Z,8.40
2019-02-06T08:42:45.305Z,8.43
2019-02-06T08:45:17.584Z,8.77
2019-02-06T08:47:49.164Z,8.30
2019-02-06T08:50:20.595Z,8.20
2019-02-06T08:52:52.227Z,8.33
2019-02-06T08:55:26.009Z,8.43
2019-02-06T08:57:57.748Z,8.10
2019-02-06T09:00:34.100Z,7.93
2019-02-06T09:03:07.187Z,8.30
2019-02-06T09:05:38.578Z,8.47
2019-02-06T09:08:10.258Z,7.80
2019-02-06T09:10:41.828Z,8.27
2019-02-06T09:13:13.460Z,7.97
2019-02-06T09:16:12.682Z,7.83
2019-02-06T09:18:50.800Z,7.67
2019-02-06T09:21:22.654Z,7.97
2019-02-06T09:23:54.690Z,8.57
2019-02-06T09:26:26.135Z,8.50
2019-02-06T09:28:58.185Z,7.50
2019-02-06T09:31:29.971Z,8.77
2019-02-06T09:34:01.135Z,7.80
2019-02-06T09:36:32.979Z,8.03
2019-02-06T09:39:11.926Z,7.53
2019-02-06T09:41:43.849Z,7.83
2019-02-06T09:44:15.563Z,8.23
2019-02-06T09:46:47.213Z,8.60
2019-02-06T09:49:19.254Z,8.00
2019-02-06T09:51:51.013Z,7.67
2019-02-06T09:54:22.388Z,7.60
2019-02-06T09:56:54.015Z,7.30
2019-02-06T09:59:25.464Z,7.50
2019-02-06T10:01:57.014Z,7.67
2019-02-06T10:04:29.351Z,7.70
2019-02-06T10:07:00.651Z,8.20
2019-02-06T10:09:32.553Z,7.77
2019-02-06T10:12:04.206Z,7.80
2019-02-06T10:14:37.162Z,7.63
2019-02-06T10:17:08.918Z,8.07
2019-02-06T10:19:43.016Z,7.90
2019-02-06T10:22:14.491Z,7.37
2019-02-06T10:24:46.012Z,7.80
2019-02-06T10:27:18.039Z,7.97
2019-02-06T10:29:49.310Z,8.43
2019-02-06T10:32:20.808Z,8.00
2019-02-06T10:34:53.363Z,8.63
2019-02-06T10:37:25.071Z,7.57
2019-02-06T10:39:58.577Z,7.87
2019-02-06T10:42:29.355Z,8.57
2019-02-06T10:45:00.848Z,8.10
2019-02-06T10:47:32.368Z,8.03
2019-02-06T10:50:03.806Z,8.10
2019-02-06T10:52:35.628Z,8.07
2019-02-06T10:55:08.881Z,8.20
2019-02-06T10:57:41.617Z,7.70
2019-02-06T11:00:24.007Z,7.47
2019-02-06T11:02:56.025Z,7.33
2019-02-06T11:05:27.787Z,8.30
2019-02-06T11:07:59.336Z,8.10
2019-02-06T11:10:32.841Z,7.70
2019-02-06T11:13:05.489Z,7.57
2019-02-06T11:15:38.639Z,8.20
2019-02-06T11:18:10.493Z,8.50
2019-02-06T11:20:42.673Z,7.87
2019-02-06T11:23:14.544Z,7.73
2019-02-06T11:25:46.110Z,7.53
2019-02-06T11:28:18.016Z,8.57
2019-02-06T11:30:49.381Z,8.37
2019-02-06T11:33:20.757Z,7.80
2019-02-06T11:35:52.838Z,7.93
2019-02-06T11:38:24.599Z,7.53
2019-02-06T11:40:57.794Z,8.47
2019-02-06T11:43:32.066Z,8.73
2019-02-06T11:46:03.012Z,7.97
2019-02-06T11:48:39.907Z,7.93
2019-02-06T11:51:12.165Z,8.03
2019-02-06T11:53:46.764Z,8.40
2019-02-06T11:56:18.370Z,8.50
2019-02-06T11:58:50.232Z,7.93
2019-02-06T12:01:26.158Z,8.43
2019-02-06T12:03:57.495Z,8.17
2019-02-06T12:06:28.967Z,7.90
2019-02-06T12:09:00.629Z,8.30
2019-02-06T12:11:33.703Z,8.37
2019-02-06T12:14:05.679Z,7.07
2019-02-06T12:16:37.309Z,7.80
2019-02-06T12:19:09.687Z,7.77
2019-02-06T12:21:42.709Z,8.03
2019-02-06T12:24:14.404Z,8.00
2019-02-06T12:26:45.798Z,7.50
2019-02-06T12:29:18.485Z,7.17
2019-02-06T12:31:50.444Z,8.07
2019-02-06T12:34:23.293Z,7.37
2019-02-06T12:36:55.173Z,7.63
2019-02-06T12:39:26.322Z,7.70
2019-02-06T12:41:58.587Z,7.60
2019-02-06T12:44:31.238Z,7.30
2019-02-06T12:47:03.400Z,7.43
2019-02-06T12:49:35.216Z,7.00
2019-02-06T12:52:06.795Z,6.97
2019-02-06T12:54:38.106Z,7.20
2019-02-06T12:57:10.113Z,7.07
2019-02-06T12:59:43.547Z,8.07
2019-02-06T13:02:14.873Z,7.27
2019-02-06T13:04:49.652Z,7.50
2019-02-06T13:07:20.923Z,7.10
2019-02-06T13:09:52.989Z,7.57
2019-02-06T13:12:27.160Z,7.33
2019-02-06T13:14:57.464Z,7.80
2019-02-06T13:17:28.987Z,7.37
2019-02-06T13:20:00.752Z,7.07
2019-02-06T13:22:32.864Z,6.40
2019-02-06T13:25:05.570Z,7.30
2019-02-06T13:27:38.379Z,6.67
2019-02-06T13:30:13.954Z,7.40
2019-02-06T13:32:47.240Z,7.20
2019-02-06T13:35:18.892Z,7.10
2019-02-06T13:37:50.318Z,6.97
2019-02-06T13:40:22.933Z,7.23
2019-02-06T13:42:54.577Z,6.90
2019-02-06T13:45:29.093Z,7.10
2019-02-06T13:48:00.650Z,7.67
2019-02-06T13:50:34.056Z,7.17
2019-02-06T13:53:06.378Z,7.23
2019-02-06T13:55:38.168Z,7.20
2019-02-06T13:58:19.866Z,7.47
2019-02-06T14:00:45.037Z,6.50
2019-02-06T14:03:17.348Z,7.03
2019-02-06T14:05:49.823Z,6.77
2019-02-06T14:08:21.317Z,6.73
2019-02-06T14:11:00.193Z,7.07
2019-02-06T14:13:26.215Z,6.33
2019-02-06T14:15:58.281Z,6.67
2019-02-06T14:18:29.318Z,6.70
2019-02-06T14:21:01.095Z,6.60
2019-02-06T14:24:12.053Z,6.53
2019-02-06T14:27:20.052Z,6.43
2019-02-06T14:30:31.153Z,6.00
2019-02-06T14:33:36.521Z,6.43
2019-02-06T14:36:43.260Z,7.20
2019-02-06T14:39:36.533Z,6.43
2019-02-06T14:42:37.787Z,6.87
2019-02-06T14:45:50.530Z,6.60
2019-02-06T14:48:45.324Z,6.23
2019-02-06T14:51:52.851Z,6.33
2019-02-06T14:54:48.808Z,6.57
2019-02-06T14:57:54.506Z,5.57
2019-02-06T15:00:39.520Z,6.13
2019-02-06T15:03:41.126Z,6.00
2019-02-06T15:06:50.851Z,5.90
2019-02-06T15:09:50.489Z,6.27
2019-02-06T15:13:06.869Z,6.23
2019-02-06T15:16:05.932Z,5.90
2019-02-06T15:19:05.909Z,5.93
2019-02-06T15:22:01.264Z,7.10
2019-02-06T15:24:54.436Z,6.70
2019-02-06T15:27:57.269Z,6.07
2019-02-06T15:31:05.947Z,6.97
2019-02-06T15:34:08.096Z,5.93
2019-02-06T15:37:08.923Z,6.33
2019-02-06T15:40:32.416Z,5.70
2019-02-06T15:43:46.069Z,5.60
2019-02-06T15:47:15.867Z,5.43
2019-02-06T15:50:12.734Z,5.40
2019-02-06T15:52:55.681Z,5.27
2019-02-06T15:56:03.823Z,6.20
2019-02-06T15:59:21.504Z,6.10
2019-02-06T16:02:38.661Z,5.80
2019-02-06T16:05:53.961Z,6.10
2019-02-06T16:09:04.131Z,5.23
2019-02-06T16:12:01.037Z,6.43
2019-02-06T16:15:19.046Z,5.37
2019-02-06T16:18:16.574Z,5.30
2019-02-06T16:21:13.044Z,5.40
2019-02-06T16:24:21.266Z,5.57
2019-02-06T16:27:10.103Z,5.70
2019-02-06T16:30:18.711Z,6.40
2019-02-06T16:33:29.271Z,6.33
2019-02-06T16:36:33.975Z,5.90
2019-02-06T16:39:23.770Z,5.10
2019-02-06T16:42:18.517Z,5.70
2019-02-06T16:45:38.963Z,5.43
2019-02-06T16:48:57.215Z,5.10
2019-02-06T16:51:35.664Z,6.17
2019-02-06T16:54:44.436Z,5.67
2019-02-06T16:57:49.497Z,5.97
2019-02-06T17:01:10.332Z,5.90
2019-02-06T17:04:15.836Z,5.67
2019-02-06T17:07:24.204Z,5.80
2019-02-06T17:10:48.244Z,6.33
2019-02-06T17:14:00.980Z,6.57
2019-02-06T17:17:09.788Z,6.17
2019-02-06T17:20:18.469Z,6.23
2019-02-06T17:23:36.317Z,7.00
2019-02-06T17:27:10.074Z,6.97
2019-02-06T17:30:07.335Z,6.40
2019-02-06T17:33:11.437Z,6.40
2019-02-06T17:36:21.353Z,7.13
2019-02-06T17:39:35.168Z,6.63
2019-02-06T17:42:24.815Z,7.53
2019-02-06T17:45:39.168Z,6.30
2019-02-06T17:49:05.671Z,7.00
2019-02-06T17:52:14.353Z,7.17
2019-02-06T17:55:18.091Z,8.00
2019-02-06T17:57:50.329Z,7.63
2019-02-06T18:00:28.440Z,7.13
2019-02-06T18:03:00.805Z,7.40
2019-02-06T18:05:31.362Z,6.83
2019-02-06T18:08:05.877Z,7.37
2019-02-06T18:10:36.834Z,7.13
2019-02-06T18:13:08.155Z,7.10
2019-02-06T18:15:38.906Z,6.90
2019-02-06T18:18:09.755Z,6.67
2019-02-06T18:20:40.858Z,7.30
2019-02-06T18:23:11.663Z,7.67
2019-02-06T18:25:43.539Z,7.30
2019-02-06T18:28:14.218Z,6.70
2019-02-06T18:30:45.268Z,6.73
2019-02-06T18:33:18.747Z,7.30
2019-02-06T18:35:51.641Z,6.17
2019-02-06T18:38:22.979Z,6.60
2019-02-06T18:40:54.109Z,7.07
2019-02-06T18:43:25.408Z,7.10
2019-02-06T18:45:56.377Z,7.60
2019-02-06T18:48:28.656Z,6.77
2019-02-06T18:51:02.409Z,7.20
2019-02-06T18:53:33.273Z,7.23
2019-02-06T18:56:03.949Z,7.17
2019-02-06T18:58:35.201Z,8.00
2019-02-06T19:01:07.315Z,7.57
2019-02-06T19:03:41.696Z,8.83
2019-02-06T19:06:13.614Z,8.10
2019-02-06T19:08:44.966Z,7.40
2019-02-06T19:11:16.323Z,7.73
2019-02-06T19:13:47.639Z,9.00
2019-02-06T19:16:18.271Z,8.60
2019-02-06T19:18:49.036Z,7.80
2019-02-06T19:21:20.351Z,8.17
2019-02-06T19:23:51.199Z,8.30
2019-02-06T19:26:22.099Z,8.50
2019-02-06T19:28:53.610Z,8.33
2019-02-06T19:31:24.448Z,8.37
2019-02-06T19:33:58.190Z,8.63
2019-02-06T19:36:51.705Z,8.90
2019-02-06T19:39:28.781Z,9.03
2019-02-06T19:42:13.019Z,8.70
2019-02-06T19:44:49.094Z,8.80
2019-02-06T19:47:27.724Z,9.03
2019-02-06T19:50:00.529Z,9.13
2019-02-06T19:52:35.323Z,9.57
2019-02-06T19:55:10.725Z,8.57
2019-02-06T19:57:46.950Z,9.17
2019-02-06T20:00:26.182Z,8.97
2019-02-06T20:02:59.464Z,10.17
2019-02-06T20:05:35.633Z,8.93
2019-02-06T20:08:10.550Z,8.73
2019-02-06T20:10:48.016Z,9.93
2019-02-06T20:13:22.665Z,10.50
2019-02-06T20:15:58.039Z,8.97
2019-02-06T20:18:32.258Z,9.87
2019-02-06T20:21:07.273Z,9.80
2019-02-06T20:23:41.403Z,9.93
2019-02-06T20:26:16.558Z,10.40
2019-02-06T20:28:50.693Z,9.60
2019-02-06T20:31:24.971Z,9.63
2019-02-06T20:33:59.646Z,9.90
2019-02-06T20:36:34.038Z,9.73
2019-02-06T20:39:10.297Z,10.20
2019-02-06T20:41:44.490Z,9.40
2019-02-06T20:44:18.462Z,9.83
2019-02-06T20:46:55.846Z,10.83
2019-02-06T20:49:29.074Z,10.00
2019-02-06T20:52:03.398Z,10.53
2019-02-06T20:54:37.203Z,9.67
2019-02-06T20:57:15.096Z,10.10
2019-02-06T20:59:46.873Z,9.40
2019-02-06T21:02:21.875Z,9.87
2019-02-06T21:04:56.622Z,10.20
2019-02-06T21:07:31.626Z,10.43
2019-02-06T21:10:06.217Z,10.80
2019-02-06T21:12:40.500Z,10.83
2019-02-06T21:15:14.876Z,11.43
2019-02-06T21:17:48.972Z,10.43
2019-02-06T21:20:24.327Z,11.43
2019-02-06T21:22:58.610Z,11.33
2019-02-06T21:25:32.762Z,11.70
2019-02-06T21:28:06.799Z,11.27
2019-02-06T21:30:40.549Z,11.13
2019-02-06T21:33:15.061Z,11.33
2019-02-06T21:35:48.877Z,11.63
2019-02-06T21:38:23.096Z,11.30
2019-02-06T21:40:56.151Z,11.20
2019-02-06T21:43:30.913Z,11.40
2019-02-06T21:46:05.656Z,11.87
2019-02-06T21:48:39.947Z,12.37
2019-02-06T21:51:14.811Z,11.93
2019-02-06T21:53:49.252Z,12.07
2019-02-06T21:56:26.399Z,12.60
2019-02-06T21:59:00.520Z,12.73
2019-02-06T22:01:35.006Z,12.07
2019-02-06T22:04:08.451Z,12.03
2019-02-06T22:06:42.366Z,12.33
2019-02-06T22:09:16.527Z,11.67
2019-02-06T22:11:50.186Z,11.90
2019-02-06T22:14:23.356Z,12.10
2019-02-06T22:16:56.849Z,11.73
2019-02-06T22:19:30.345Z,11.73
2019-02-06T22:22:04.322Z,12.53
2019-02-06T22:24:37.964Z,12.30
2019-02-06T22:27:11.678Z,12.27
2019-02-06T22:29:45.883Z,12.60
2019-02-06T22:32:20.940Z,12.67
2019-02-06T22:34:55.055Z,12.47
2019-02-06T22:37:29.797Z,12.57
2019-02-06T22:40:03.982Z,13.13
2019-02-06T22:42:37.532Z,14.40
2019-02-06T22:45:16.229Z,13.03
2019-02-06T22:47:49.829Z,13.30
2019-02-06T22:50:24.912Z,14.60
2019-02-06T22:52:59.051Z,14.97
2019-02-06T22:55:33.078Z,15.37
2019-02-06T22:58:06.555Z,14.90
2019-02-06T23:01:27.881Z,15.13
2019-02-06T23:04:02.412Z,13.53
2019-02-06T23:06:36.217Z,15.07
2019-02-06T23:09:11.088Z,14.23
2019-02-06T23:11:44.883Z,13.70
2019-02-06T23:14:20.253Z,13.60
2019-02-06T23:16:56.532Z,14.07
2019-02-06T23:19:31.068Z,14.63
2019-02-06T23:22:05.101Z,13.93
2019-02-06T23:24:39.034Z,15.90
2019-02-06T23:27:13.218Z,14.40
2019-02-06T23:29:49.059Z,14.83
2019-02-06T23:32:23.108Z,15.33
2019-02-06T23:34:57.102Z,14.50
2019-02-06T23:37:30.789Z,14.53
2019-02-06T23:40:06.686Z,14.83
2019-02-06T23:42:40.143Z,16.20
2019-02-06T23:45:14.177Z,15.60
2019-02-06T23:47:48.144Z,14.60
2019-02-06T23:50:21.890Z,14.57
2019-02-06T23:52:55.660Z,16.00
2019-02-06T23:55:30.134Z,14.93
2019-02-06T23:58:04.885Z,15.17
